This is the latest recevied weather packets stored in our database for station/object OH6GPB-4. If no packets are shown the sender has not sent any weather packets the latest 10 day(s).
| Time | Temp. | Humidity | Pressure | Rain* | Wind** | Luminosity | Snow |
|---|---|---|---|---|---|---|---|
| 1777468658 | 6.67° C | 46% | 1021 hPa | 0 mm | - | 394 W/m² | - |
| 1777466852 | 6.67° C | 43% | 1021.1 hPa | 0 mm | - | 446 W/m² | - |
| 1777465055 | 6.67° C | 41% | 1021.5 hPa | 0 mm | - | 462 W/m² | - |
| 1777463244 | 6.67° C | 42% | 1021.7 hPa | 0 mm | - | 446 W/m² | - |
| 1777461442 | 6.67° C | 38% | 1022.1 hPa | 0 mm | - | 473 W/m² | - |
| 1777459656 | 6.11° C | 37% | 1022.5 hPa | 0 mm | - | 506 W/m² | - |
| 1777457847 | 6.11° C | 37% | 1022.7 hPa | 0 mm | - | 763 W/m² | - |
| 1777456043 | 6.11° C | 37% | 1023.1 hPa | 0 mm | - | 694 W/m² | - |
| 1777454256 | 5° C | 38% | 1023.1 hPa | 0 mm | - | 668 W/m² | - |
| 1777452448 | 5.56° C | 38% | 1023.3 hPa | 0 mm | - | 642 W/m² | - |
| 1777450657 | 5.56° C | 38% | 1023.5 hPa | 0 mm | - | 619 W/m² | - |
| 1777448856 | 5° C | 41% | 1023.6 hPa | 0 mm | - | 515 W/m² | - |
| 1777447045 | 5° C | 48% | 1023.7 hPa | 0 mm | - | 519 W/m² | - |
| 1777445244 | 5° C | 51% | 1024 hPa | 0 mm | - | 429 W/m² | - |
| 1777443447 | 3.89° C | 59% | 1024.1 hPa | 0 mm | - | 403 W/m² | - |
| 1777441643 | 3.89° C | 61% | 1024.1 hPa | 0 mm | - | 359 W/m² | - |
| 1777439855 | 3.33° C | 63% | 1024.2 hPa | 0 mm | - | 274 W/m² | - |
| 1777438057 | 3.33° C | 69% | 1024.2 hPa | 0 mm | - | 211 W/m² | - |
| 1777436253 | 2.22° C | 73% | 1024 hPa | 0 mm | - | 76 W/m² | - |
| 1777434445 | 1.11° C | 78% | 1023.9 hPa | 0 mm | - | 33 W/m² | - |
| 1777432645 | -0.56° C | 82% | 1024 hPa | 0 mm | - | 28 W/m² | - |
| 1777430855 | -1.11° C | 81% | 1024.1 hPa | 0 mm | - | 12 W/m² | - |
| 1777429060 | -0.56° C | 81% | 1024.1 hPa | 0 mm | - | 5 W/m² | - |
| 1777427248 | -0.56° C | 81% | 1024.1 hPa | 0 mm | - | 0 W/m² | - |
| 1777425460 | -0.56° C | 83% | 1024.1 hPa | 0 mm | - | 0 W/m² | - |
* Rain latest hour (hover to see other rain measurements)
** Current wind speed in m/s (hover to see current wind gust speed)